createdAt,value
2022-10-09T00:00:44.408Z,7.85
2022-10-09T00:03:17.843Z,7.80
2022-10-09T00:05:48.773Z,7.78
2022-10-09T00:08:19.271Z,7.65
2022-10-09T00:10:50.863Z,7.62
2022-10-09T00:13:21.550Z,8.73
2022-10-09T00:15:52.354Z,5.90
2022-10-09T00:18:22.971Z,5.97
2022-10-09T00:20:53.605Z,6.45
2022-10-09T00:23:24.337Z,7.17
2022-10-09T00:25:57.634Z,7.10
2022-10-09T00:28:33.286Z,6.65
2022-10-09T00:31:04.175Z,6.20
2022-10-09T00:33:35.920Z,6.40
2022-10-09T00:36:08.689Z,6.95
2022-10-09T00:38:39.716Z,5.85
2022-10-09T00:41:11.242Z,9.83
2022-10-09T00:43:44.373Z,9.45
2022-10-09T00:46:17.584Z,8.23
2022-10-09T00:48:49.854Z,9.33
2022-10-09T00:51:20.614Z,7.30
2022-10-09T00:53:51.273Z,4.65
2022-10-09T00:56:22.290Z,4.40
2022-10-09T00:58:55.769Z,4.05
2022-10-09T01:01:26.572Z,3.45
2022-10-09T01:03:57.167Z,4.00
2022-10-09T01:06:28.846Z,3.65
2022-10-09T01:09:01.867Z,4.00
2022-10-09T01:11:34.911Z,3.30
2022-10-09T01:14:06.821Z,3.60
2022-10-09T01:16:40.203Z,3.92
2022-10-09T01:19:13.387Z,3.77
2022-10-09T01:21:46.542Z,2.80
2022-10-09T01:24:19.620Z,3.52
2022-10-09T01:26:52.630Z,2.95
2022-10-09T01:29:25.529Z,3.10
2022-10-09T01:31:57.193Z,3.15
2022-10-09T01:34:29.167Z,3.10
2022-10-09T01:37:00.808Z,2.75
2022-10-09T01:39:33.610Z,2.95
2022-10-09T01:42:04.892Z,2.87
2022-10-09T01:44:36.320Z,3.00
2022-10-09T01:47:10.354Z,2.90
2022-10-09T01:49:42.303Z,2.77
2022-10-09T01:52:18.733Z,2.77
2022-10-09T01:54:50.391Z,3.22
2022-10-09T01:57:26.651Z,3.12
2022-10-09T01:59:59.728Z,2.77
2022-10-09T02:02:31.928Z,2.77
2022-10-09T02:05:03.488Z,2.80
2022-10-09T02:07:38.168Z,2.65
2022-10-09T02:10:10.208Z,2.60
2022-10-09T02:12:43.518Z,4.65
2022-10-09T02:15:14.927Z,3.17
2022-10-09T02:17:47.944Z,2.47
2022-10-09T02:20:21.079Z,2.60
2022-10-09T02:22:52.041Z,2.62
2022-10-09T02:25:23.059Z,2.60
2022-10-09T02:27:54.159Z,2.40
2022-10-09T02:30:26.233Z,2.27
2022-10-09T02:32:57.541Z,2.60
2022-10-09T02:35:28.250Z,2.67
2022-10-09T02:37:59.060Z,2.40
2022-10-09T02:40:29.625Z,2.50
2022-10-09T02:43:00.118Z,2.08
2022-10-09T02:45:30.738Z,2.15
2022-10-09T02:48:01.424Z,1.80
2022-10-09T02:50:32.043Z,1.87
2022-10-09T02:53:02.598Z,2.15
2022-10-09T02:55:33.120Z,1.90
2022-10-09T02:58:03.827Z,1.70
2022-10-09T03:00:34.788Z,1.85
2022-10-09T03:03:05.653Z,1.72
2022-10-09T03:05:36.276Z,1.80
2022-10-09T03:08:06.989Z,2.00
2022-10-09T03:10:40.293Z,1.60
2022-10-09T03:13:11.451Z,1.50
2022-10-09T03:15:42.550Z,1.70
2022-10-09T03:18:16.538Z,1.62
2022-10-09T03:20:47.225Z,2.20
2022-10-09T03:23:18.103Z,1.50
2022-10-09T03:25:49.854Z,1.80
2022-10-09T03:28:20.492Z,1.90
2022-10-09T03:30:51.170Z,1.85
2022-10-09T03:33:22.694Z,1.72
2022-10-09T03:35:53.758Z,1.70
2022-10-09T03:38:24.278Z,1.30
2022-10-09T03:40:55.330Z,1.40
2022-10-09T03:43:25.938Z,1.57
2022-10-09T03:46:00.360Z,1.20
2022-10-09T03:48:28.990Z,1.55
2022-10-09T03:51:00.145Z,1.55
2022-10-09T03:53:31.033Z,1.47
2022-10-09T03:56:01.530Z,1.30
2022-10-09T03:58:32.141Z,1.47
2022-10-09T04:01:02.925Z,1.75
2022-10-09T04:03:33.652Z,1.30
2022-10-09T04:06:04.232Z,1.30
2022-10-09T04:08:34.765Z,1.35
2022-10-09T04:11:05.495Z,1.57
2022-10-09T04:13:52.796Z,1.17
2022-10-09T04:16:23.856Z,1.50
2022-10-09T04:18:54.667Z,1.57
2022-10-09T04:21:25.717Z,1.50
2022-10-09T04:23:56.362Z,1.22
2022-10-09T04:26:27.022Z,1.40
2022-10-09T04:28:57.918Z,1.50
2022-10-09T04:31:28.572Z,1.40
2022-10-09T04:33:59.294Z,1.40
2022-10-09T04:36:29.961Z,1.27
2022-10-09T04:39:00.759Z,1.37
2022-10-09T04:41:34.738Z,1.30
2022-10-09T04:44:03.204Z,1.62
2022-10-09T04:46:33.984Z,1.45
2022-10-09T04:49:04.676Z,1.37
2022-10-09T04:51:35.288Z,1.67
2022-10-09T04:54:05.900Z,1.37
2022-10-09T04:56:36.811Z,1.42
2022-10-09T04:59:08.265Z,1.30
2022-10-09T05:01:38.940Z,1.52
2022-10-09T05:04:09.597Z,1.20
2022-10-09T05:06:40.200Z,1.20
2022-10-09T05:09:10.955Z,1.52
2022-10-09T05:11:44.789Z,1.37
2022-10-09T05:14:14.929Z,1.52
2022-10-09T05:17:11.740Z,1.60
2022-10-09T05:19:17.799Z,1.30
2022-10-09T05:21:48.419Z,1.25
2022-10-09T05:24:19.157Z,1.60
2022-10-09T05:26:49.763Z,1.65
2022-10-09T05:29:20.468Z,1.65
2022-10-09T05:31:51.186Z,1.72
2022-10-09T05:34:21.850Z,1.98
2022-10-09T05:36:52.464Z,1.85
2022-10-09T05:39:23.008Z,1.80
2022-10-09T05:41:53.758Z,1.85
2022-10-09T05:44:24.465Z,1.95
2022-10-09T05:46:54.992Z,2.05
2022-10-09T05:49:26.017Z,1.95
2022-10-09T05:51:57.164Z,1.62
2022-10-09T05:54:28.501Z,1.80
2022-10-09T05:56:59.070Z,1.62
2022-10-09T05:59:29.769Z,1.77
2022-10-09T06:02:00.545Z,1.77
2022-10-09T06:04:31.657Z,1.55
2022-10-09T06:07:02.219Z,1.90
2022-10-09T06:09:32.930Z,1.52
2022-10-09T06:12:03.447Z,1.82
2022-10-09T06:14:34.120Z,1.80
2022-10-09T06:17:04.843Z,1.70
2022-10-09T06:19:35.469Z,1.80
2022-10-09T06:22:06.455Z,2.00
2022-10-09T06:24:38.050Z,1.75
2022-10-09T06:27:08.657Z,1.80
2022-10-09T06:29:39.449Z,2.00
2022-10-09T06:32:09.954Z,1.85
2022-10-09T06:34:40.774Z,1.90
2022-10-09T06:37:11.414Z,2.12
2022-10-09T06:39:42.038Z,1.77
2022-10-09T06:42:12.755Z,1.72
2022-10-09T06:44:44.761Z,1.70
2022-10-09T06:47:15.365Z,1.62
2022-10-09T06:49:45.852Z,1.85
2022-10-09T06:52:16.654Z,1.70
2022-10-09T06:54:47.294Z,1.82
2022-10-09T06:57:18.018Z,1.70
2022-10-09T06:59:57.278Z,1.45
2022-10-09T07:02:45.942Z,1.82
2022-10-09T07:05:29.069Z,2.37
2022-10-09T07:08:09.669Z,2.85
2022-10-09T07:10:40.159Z,2.37
2022-10-09T07:13:10.787Z,2.45
2022-10-09T07:15:44.076Z,2.67
2022-10-09T07:18:17.223Z,3.25
2022-10-09T07:20:47.859Z,3.55
2022-10-09T07:23:18.790Z,2.65
2022-10-09T07:25:49.659Z,2.35
2022-10-09T07:28:20.214Z,3.15
2022-10-09T07:30:51.052Z,3.27
2022-10-09T07:33:22.234Z,2.87
2022-10-09T07:35:55.425Z,2.50
2022-10-09T07:38:26.940Z,2.83
2022-10-09T07:40:59.280Z,2.90
2022-10-09T07:43:29.891Z,2.85
2022-10-09T07:46:04.829Z,2.87
2022-10-09T07:48:37.258Z,3.02
2022-10-09T07:51:11.020Z,3.02
2022-10-09T07:53:41.858Z,2.87
2022-10-09T07:56:14.926Z,3.00
2022-10-09T07:58:46.326Z,3.08
2022-10-09T08:01:20.054Z,2.83
2022-10-09T08:03:50.056Z,2.47
2022-10-09T08:06:21.757Z,2.40
2022-10-09T08:08:54.450Z,2.40
2022-10-09T08:11:27.328Z,2.25
2022-10-09T08:13:58.043Z,2.62
2022-10-09T08:16:29.764Z,2.20
2022-10-09T08:19:02.582Z,2.10
2022-10-09T08:21:34.098Z,2.40
2022-10-09T08:24:05.090Z,2.47
2022-10-09T08:26:35.767Z,2.70
2022-10-09T08:29:09.316Z,2.45
2022-10-09T08:31:40.302Z,2.47
2022-10-09T08:34:12.560Z,2.67
2022-10-09T08:36:43.293Z,2.40
2022-10-09T08:39:14.246Z,2.30
2022-10-09T08:41:47.606Z,2.45
2022-10-09T08:44:20.645Z,2.30
2022-10-09T08:46:53.845Z,2.27
2022-10-09T08:49:27.348Z,2.70
2022-10-09T08:52:00.637Z,2.65
2022-10-09T08:54:33.737Z,2.50
2022-10-09T08:57:06.961Z,2.30
2022-10-09T08:59:38.140Z,2.60
2022-10-09T09:02:09.688Z,2.50
2022-10-09T09:04:42.910Z,2.42
2022-10-09T09:07:16.026Z,2.30
2022-10-09T09:09:49.160Z,2.02
2022-10-09T09:12:22.329Z,2.27
2022-10-09T09:14:53.849Z,2.62
2022-10-09T09:17:27.497Z,2.42
2022-10-09T09:20:00.770Z,2.50
2022-10-09T09:22:32.975Z,2.27
2022-10-09T09:25:06.016Z,2.60
2022-10-09T09:27:38.903Z,2.25
2022-10-09T09:30:12.152Z,2.35
2022-10-09T09:32:45.290Z,2.58
2022-10-09T09:35:16.748Z,2.37
2022-10-09T09:37:47.595Z,2.50
2022-10-09T09:40:38.134Z,2.05
2022-10-09T09:43:17.266Z,2.40
2022-10-09T09:45:58.379Z,2.37
2022-10-09T09:48:39.409Z,2.05
2022-10-09T09:51:29.434Z,2.20
2022-10-09T09:53:47.404Z,2.35
2022-10-09T09:56:53.215Z,2.30
2022-10-09T09:58:59.010Z,2.37
2022-10-09T10:01:34.119Z,2.60
2022-10-09T10:04:08.954Z,2.30
2022-10-09T10:06:41.987Z,2.52
2022-10-09T10:09:15.018Z,2.65
2022-10-09T10:11:52.324Z,2.50
2022-10-09T10:14:27.358Z,2.40
2022-10-09T10:17:02.622Z,2.72
2022-10-09T10:19:37.001Z,2.17
2022-10-09T10:22:09.804Z,3.05
2022-10-09T10:24:43.911Z,2.87
2022-10-09T10:27:15.565Z,2.90
2022-10-09T10:29:48.346Z,2.90
2022-10-09T10:32:21.371Z,2.85
2022-10-09T10:34:52.897Z,3.02
2022-10-09T10:37:22.815Z,3.35
2022-10-09T10:39:57.989Z,3.10
2022-10-09T10:42:31.042Z,3.20
2022-10-09T10:45:05.230Z,3.10
2022-10-09T10:47:41.121Z,3.20
2022-10-09T10:50:14.467Z,3.77
2022-10-09T10:52:47.645Z,3.80
2022-10-09T10:55:22.045Z,3.77
2022-10-09T10:57:55.093Z,3.50
2022-10-09T11:00:30.259Z,3.98
2022-10-09T11:03:04.351Z,4.03
2022-10-09T11:05:37.387Z,3.58
2022-10-09T11:08:10.613Z,4.30
2022-10-09T11:10:43.591Z,3.50
2022-10-09T11:13:13.626Z,3.80
2022-10-09T11:15:46.702Z,4.00
2022-10-09T11:18:18.272Z,4.80
2022-10-09T11:20:51.316Z,4.85
2022-10-09T11:23:24.836Z,4.58
2022-10-09T11:26:01.191Z,4.67
2022-10-09T11:28:34.419Z,4.62
2022-10-09T11:31:09.949Z,4.85
2022-10-09T11:33:43.061Z,5.05
2022-10-09T11:36:16.163Z,5.15
2022-10-09T11:38:49.218Z,4.30
2022-10-09T11:41:20.438Z,4.37
2022-10-09T11:43:53.714Z,4.22
2022-10-09T11:46:28.157Z,4.30
2022-10-09T11:49:08.835Z,4.22
2022-10-09T11:52:08.236Z,4.62
2022-10-09T12:00:17.909Z,3.27
2022-10-09T12:02:55.775Z,2.50
2022-10-09T12:08:25.859Z,1.87
2022-10-09T12:11:10.711Z,1.75
2022-10-09T12:19:34.402Z,1.80
2022-10-09T12:22:19.654Z,1.50
2022-10-09T12:27:59.920Z,1.45
2022-10-09T12:33:42.308Z,1.80
2022-10-09T12:44:54.326Z,1.25
2022-10-09T12:53:20.273Z,2.15
2022-10-09T13:01:54.703Z,1.62
2022-10-09T13:04:31.639Z,2.40
2022-10-09T13:07:25.595Z,1.80
2022-10-09T13:12:57.732Z,2.67
2022-10-09T13:18:28.167Z,2.08
2022-10-09T13:23:56.775Z,2.00
2022-10-09T13:26:32.963Z,1.90
2022-10-09T13:29:10.439Z,1.80
2022-10-09T13:31:45.677Z,1.82
2022-10-09T13:34:19.396Z,1.82
2022-10-09T13:36:53.153Z,1.67
2022-10-09T13:45:12.453Z,1.67
2022-10-09T13:47:47.906Z,1.40
2022-10-09T13:56:11.621Z,1.90
2022-10-09T13:58:52.813Z,1.90
2022-10-09T14:01:26.421Z,1.80
2022-10-09T14:03:59.221Z,1.62
2022-10-09T14:06:38.261Z,1.72
2022-10-09T14:09:13.154Z,2.02
2022-10-09T14:14:50.158Z,1.95
2022-10-09T14:17:30.332Z,2.30
2022-10-09T14:22:57.068Z,2.80
2022-10-09T14:28:22.242Z,2.75
2022-10-09T14:31:01.421Z,2.60
2022-10-09T14:33:34.230Z,3.00
2022-10-09T14:36:09.633Z,2.83
2022-10-09T14:38:45.183Z,2.98
2022-10-09T14:41:20.123Z,3.50
2022-10-09T14:43:54.598Z,3.35
2022-10-09T14:46:32.961Z,3.40
2022-10-09T14:49:05.156Z,3.20
2022-10-09T14:51:37.916Z,3.12
2022-10-09T14:54:11.218Z,3.15
2022-10-09T14:56:46.231Z,3.52
2022-10-09T14:59:19.731Z,3.58
2022-10-09T15:01:50.467Z,3.55
2022-10-09T15:04:20.982Z,3.33
2022-10-09T15:06:51.531Z,3.27
2022-10-09T15:09:22.054Z,3.67
2022-10-09T15:11:54.200Z,4.37
2022-10-09T15:14:25.081Z,3.58
2022-10-09T15:16:55.692Z,3.33
2022-10-09T15:19:28.522Z,3.30
2022-10-09T15:21:58.101Z,3.42
2022-10-09T15:24:31.306Z,3.62
2022-10-09T15:27:03.267Z,3.72
2022-10-09T15:29:33.823Z,3.33
2022-10-09T15:32:04.947Z,3.05
2022-10-09T15:34:38.812Z,3.22
2022-10-09T15:37:08.017Z,3.30
2022-10-09T15:39:44.960Z,2.90
2022-10-09T15:42:15.117Z,3.33
2022-10-09T15:44:45.981Z,2.98
2022-10-09T15:47:16.951Z,3.58
2022-10-09T15:49:53.192Z,3.22
2022-10-09T15:52:20.501Z,3.17
2022-10-09T15:54:51.157Z,3.50
2022-10-09T15:57:21.769Z,3.42
2022-10-09T15:59:52.277Z,3.20
2022-10-09T16:02:22.772Z,2.83
2022-10-09T16:04:53.526Z,3.37
2022-10-09T16:07:26.541Z,3.15
2022-10-09T16:09:58.320Z,2.83
2022-10-09T16:12:30.126Z,2.80
2022-10-09T16:15:01.161Z,3.08
2022-10-09T16:17:31.948Z,3.25
2022-10-09T16:20:02.457Z,3.20
2022-10-09T16:22:32.937Z,3.22
2022-10-09T16:25:03.758Z,3.22
2022-10-09T16:27:36.077Z,3.10
2022-10-09T16:30:08.465Z,2.98
2022-10-09T16:32:42.497Z,3.08
2022-10-09T16:35:13.100Z,2.85
2022-10-09T16:37:43.686Z,2.58
2022-10-09T16:40:14.925Z,2.75
2022-10-09T16:42:45.530Z,2.75
2022-10-09T16:45:16.086Z,2.87
2022-10-09T16:47:47.307Z,3.17
2022-10-09T16:50:18.486Z,2.72
2022-10-09T16:52:49.109Z,2.70
2022-10-09T16:55:20.015Z,2.72
2022-10-09T16:57:50.799Z,2.65
2022-10-09T17:00:22.996Z,2.75
2022-10-09T17:02:53.597Z,2.40
2022-10-09T17:05:25.633Z,2.70
2022-10-09T17:08:00.479Z,2.60
2022-10-09T17:10:31.158Z,2.62
2022-10-09T17:13:01.904Z,2.52
2022-10-09T17:15:32.466Z,2.67
2022-10-09T17:18:03.220Z,2.83
2022-10-09T17:20:33.947Z,2.42
2022-10-09T17:23:04.595Z,2.42
2022-10-09T17:25:37.349Z,2.12
2022-10-09T17:28:08.739Z,2.40
2022-10-09T17:30:41.777Z,2.42
2022-10-09T17:33:15.097Z,2.80
2022-10-09T17:35:44.691Z,2.30
2022-10-09T17:38:15.181Z,2.60
2022-10-09T17:40:45.771Z,2.60
2022-10-09T17:43:16.389Z,2.47
2022-10-09T17:45:48.004Z,2.30
2022-10-09T17:48:18.599Z,2.72
2022-10-09T17:50:51.961Z,2.27
2022-10-09T17:53:24.718Z,2.67
2022-10-09T17:55:58.334Z,2.30
2022-10-09T17:58:28.944Z,2.35
2022-10-09T18:00:59.716Z,2.27
2022-10-09T18:03:30.300Z,2.30
2022-10-09T18:06:02.443Z,2.70
2022-10-09T18:08:33.229Z,2.60
2022-10-09T18:11:09.426Z,2.30
2022-10-09T18:13:41.509Z,2.72
2022-10-09T18:16:14.930Z,2.40
2022-10-09T18:18:49.120Z,2.87
2022-10-09T18:21:22.668Z,2.70
2022-10-09T18:23:53.317Z,2.62
2022-10-09T18:26:24.660Z,2.42
2022-10-09T18:28:55.705Z,2.47
2022-10-09T18:31:26.544Z,2.50
2022-10-09T18:33:57.125Z,2.12
2022-10-09T18:36:31.184Z,2.12
2022-10-09T18:39:04.747Z,2.42
2022-10-09T18:41:35.626Z,2.52
2022-10-09T18:44:11.608Z,2.40
2022-10-09T18:46:44.970Z,2.30
2022-10-09T18:49:18.126Z,2.60
2022-10-09T18:51:50.015Z,2.33
2022-10-09T18:54:22.420Z,2.27
2022-10-09T18:56:53.770Z,2.77
2022-10-09T18:59:25.188Z,2.60
2022-10-09T19:01:55.817Z,2.33
2022-10-09T19:04:26.405Z,2.60
2022-10-09T19:06:58.128Z,3.25
2022-10-09T19:09:28.718Z,2.50
2022-10-09T19:11:59.276Z,2.40
2022-10-09T19:14:29.997Z,2.70
2022-10-09T19:17:00.577Z,2.70
2022-10-09T19:19:31.490Z,2.40
2022-10-09T19:22:02.314Z,2.30
2022-10-09T19:24:34.286Z,2.37
2022-10-09T19:27:05.733Z,2.92
2022-10-09T19:29:36.606Z,2.80
2022-10-09T19:32:07.696Z,2.67
2022-10-09T19:34:38.320Z,2.50
2022-10-09T19:37:08.910Z,2.60
2022-10-09T19:39:39.679Z,2.40
2022-10-09T19:42:10.139Z,2.85
2022-10-09T19:44:43.199Z,2.52
2022-10-09T19:47:15.710Z,2.40
2022-10-09T19:49:46.188Z,2.72
2022-10-09T19:52:16.710Z,2.52
2022-10-09T19:54:47.303Z,2.92
2022-10-09T19:57:17.817Z,2.67
2022-10-09T19:59:49.136Z,2.90
2022-10-09T20:02:19.821Z,3.10
2022-10-09T20:04:51.765Z,3.05
2022-10-09T20:07:23.298Z,2.80
2022-10-09T20:09:53.972Z,2.80
2022-10-09T20:12:24.884Z,2.80
2022-10-09T20:14:55.583Z,2.90
2022-10-09T20:17:26.140Z,2.85
2022-10-09T20:19:56.637Z,3.30
2022-10-09T20:22:27.310Z,3.33
2022-10-09T20:24:58.050Z,3.40
2022-10-09T20:27:28.715Z,2.95
2022-10-09T20:29:59.514Z,2.47
2022-10-09T20:32:31.426Z,2.33
2022-10-09T20:35:03.790Z,3.00
2022-10-09T20:37:36.091Z,2.37
2022-10-09T20:40:07.573Z,2.85
2022-10-09T20:42:38.469Z,2.40
2022-10-09T20:45:09.370Z,2.60
2022-10-09T20:47:40.010Z,2.20
2022-10-09T20:50:11.705Z,2.83
2022-10-09T20:52:42.311Z,2.40
2022-10-09T20:55:12.954Z,2.52
2022-10-09T20:57:43.457Z,2.90
2022-10-09T21:00:14.521Z,3.27
2022-10-09T21:02:45.161Z,3.15
2022-10-09T21:05:15.760Z,2.95
2022-10-09T21:07:47.014Z,2.72
2022-10-09T21:10:18.488Z,3.05
2022-10-09T21:12:49.556Z,3.60
2022-10-09T21:15:20.726Z,3.92
2022-10-09T21:17:51.239Z,3.72
2022-10-09T21:20:21.873Z,3.87
2022-10-09T21:22:52.795Z,3.33
2022-10-09T21:25:23.628Z,3.27
2022-10-09T21:27:54.380Z,3.67
2022-10-09T21:30:24.846Z,3.60
2022-10-09T21:32:55.439Z,4.10
2022-10-09T21:35:26.680Z,3.60
2022-10-09T21:37:57.290Z,4.03
2022-10-09T21:40:27.799Z,4.22
2022-10-09T21:42:58.473Z,4.40
2022-10-09T21:45:29.419Z,4.37
2022-10-09T21:48:00.158Z,5.75
2022-10-09T21:50:30.941Z,5.75
2022-10-09T21:53:02.293Z,6.00
2022-10-09T21:55:32.908Z,4.75
2022-10-09T21:58:03.636Z,6.15
2022-10-09T22:00:34.891Z,5.08
2022-10-09T22:03:06.105Z,6.00
2022-10-09T22:05:36.734Z,5.37
2022-10-09T22:08:07.357Z,5.78
2022-10-09T22:10:38.029Z,6.05
2022-10-09T22:13:08.574Z,4.72
2022-10-09T22:15:41.603Z,4.65
2022-10-09T22:18:13.471Z,5.53
2022-10-09T22:20:45.734Z,5.03
2022-10-09T22:23:17.429Z,4.37
2022-10-09T22:25:49.397Z,3.70
2022-10-09T22:28:20.328Z,3.75
2022-10-09T22:30:51.105Z,4.47
2022-10-09T22:33:21.787Z,4.10
2022-10-09T22:35:52.415Z,4.97
2022-10-09T22:38:22.909Z,6.12
2022-10-09T22:40:53.495Z,6.95
2022-10-09T22:43:24.117Z,6.15
2022-10-09T22:45:54.789Z,5.72
2022-10-09T22:48:25.390Z,5.35
2022-10-09T22:50:55.915Z,5.10
2022-10-09T22:53:26.632Z,5.05
2022-10-09T22:55:57.336Z,5.85
2022-10-09T22:58:28.135Z,4.90
2022-10-09T23:00:58.848Z,5.42
2022-10-09T23:03:29.569Z,4.87
2022-10-09T23:06:02.603Z,5.30
2022-10-09T23:08:33.270Z,5.03
2022-10-09T23:11:03.960Z,5.75
2022-10-09T23:13:34.938Z,5.42
2022-10-09T23:16:07.926Z,5.33
2022-10-09T23:18:39.658Z,4.67
2022-10-09T23:21:12.811Z,4.50
2022-10-09T23:23:44.496Z,4.83
2022-10-09T23:26:17.645Z,4.37
2022-10-09T23:28:50.680Z,5.70
2022-10-09T23:31:21.965Z,4.60
2022-10-09T23:33:52.671Z,4.80
2022-10-09T23:36:26.027Z,4.42
2022-10-09T23:38:57.535Z,4.15
2022-10-09T23:41:30.853Z,4.25
2022-10-09T23:44:01.487Z,5.47
2022-10-09T23:46:35.122Z,4.62
2022-10-09T23:49:06.103Z,4.40
2022-10-09T23:51:36.578Z,4.08
2022-10-09T23:54:08.292Z,5.05
2022-10-09T23:56:39.434Z,4.08
2022-10-09T23:59:10.088Z,4.10
